Time;durP1;ratioP1;P1;durP2;ratioP2;P2;SDS_P1;SDS_P2;PMS_P1;PMS_P2;Temp;Humidity;BMP_temperature;BMP_pressure;BME280_temperature;BME280_humidity;BME280_pressure;Samples;Min_cycle;Max_cycle;Signal;HPM_P1;HPM_P2
2022/04/16 00:00:15;;;;;;;14.13;6.57;;;;;;;;;;4935056;29;20087;-67
2022/04/16 00:02:41;;;;;;;11.50;6.68;;;;;;;;;;4935100;29;20059;-65
2022/04/16 00:05:08;;;;;;;10.95;6.45;;;;;;;;;;4934963;29;20050;-64
2022/04/16 00:07:34;;;;;;;15.18;6.90;;;;;;;;;;4934851;29;20023;-64
2022/04/16 00:10:00;;;;;;;12.85;6.30;;;;;;;;;;4934581;29;20454;-64
2022/04/16 00:12:27;;;;;;;16.65;7.28;;;;;;;;;;4935101;29;20027;-64
2022/04/16 00:14:54;;;;;;;17.70;5.80;;;;;;;;;;4934777;29;20475;-64
2022/04/16 00:17:20;;;;;;;12.52;6.32;;;;;;;;;;4934913;29;20031;-65
2022/04/16 00:19:46;;;;;;;11.18;5.43;;;;;;;;;;4934767;29;20036;-63
2022/04/16 00:22:12;;;;;;;15.10;5.88;;;;;;;;;;4934131;29;20031;-64
2022/04/16 00:24:40;;;;;;;10.02;5.72;;;;;;;;;;4934397;29;20403;-63
2022/04/16 00:27:07;;;;;;;14.27;5.32;;;;;;;;;;4933852;29;20467;-66
2022/04/16 00:29:34;;;;;;;10.70;4.50;;;;;;;;;;4934693;29;20032;-64
2022/04/16 00:32:00;;;;;;;15.25;5.00;;;;;;;;;;4934622;29;20375;-67
2022/04/16 00:34:26;;;;;;;12.50;5.22;;;;;;;;;;4934238;29;20118;-67
2022/04/16 00:36:52;;;;;;;11.43;5.30;;;;;;;;;;4932983;29;20455;-63
2022/04/16 00:39:17;;;;;;;9.55;5.30;;;;;;;;;;4934838;29;20052;-68
2022/04/16 00:41:44;;;;;;;12.48;5.97;;;;;;;;;;4934742;29;20086;-65
2022/04/16 00:44:10;;;;;;;13.82;7.18;;;;;;;;;;4934332;29;20450;-64
2022/04/16 00:46:36;;;;;;;13.80;6.93;;;;;;;;;;4934321;29;20031;-65
2022/04/16 00:49:02;;;;;;;16.23;7.05;;;;;;;;;;4934602;29;20046;-66
2022/04/16 00:51:29;;;;;;;15.85;8.27;;;;;;;;;;4949089;28;20484;-65
2022/04/16 00:53:55;;;;;;;11.20;6.63;;;;;;;;;;4934371;29;20070;-66
2022/04/16 00:56:22;;;;;;;11.90;6.70;;;;;;;;;;4934141;29;20115;-66
2022/04/16 00:58:47;;;;;;;11.50;6.43;;;;;;;;;;4934232;29;20497;-65
2022/04/16 01:01:13;;;;;;;14.75;6.68;;;;;;;;;;4934504;29;20039;-68
2022/04/16 01:03:43;;;;;;;14.88;7.68;;;;;;;;;;4934416;29;20463;-65
2022/04/16 01:06:15;;;;;;;16.05;7.68;;;;;;;;;;4934447;29;20042;-67
2022/04/16 01:08:44;;;;;;;16.88;8.05;;;;;;;;;;4934719;29;20905;-70
2022/04/16 01:11:14;;;;;;;13.07;7.18;;;;;;;;;;4934333;29;20075;-67
2022/04/16 01:13:40;;;;;;;14.90;7.53;;;;;;;;;;4934156;29;20040;-65
2022/04/16 01:16:07;;;;;;;16.13;7.85;;;;;;;;;;4934532;29;20124;-64
2022/04/16 01:18:33;;;;;;;9.68;6.65;;;;;;;;;;4934201;29;20036;-65
2022/04/16 01:21:02;;;;;;;15.25;7.55;;;;;;;;;;4935096;29;20431;-65
2022/04/16 01:23:30;;;;;;;12.73;7.13;;;;;;;;;;4942348;29;20047;-65
2022/04/16 01:25:56;;;;;;;14.15;7.45;;;;;;;;;;4939463;28;20046;-66
2022/04/16 01:28:23;;;;;;;12.02;7.03;;;;;;;;;;4937499;29;20502;-63
2022/04/16 01:30:48;;;;;;;18.05;7.10;;;;;;;;;;4937628;29;20023;-63
2022/04/16 01:33:16;;;;;;;14.98;7.82;;;;;;;;;;4937541;29;20399;-66
2022/04/16 01:35:42;;;;;;;18.42;8.15;;;;;;;;;;4937538;29;20031;-64
2022/04/16 01:38:09;;;;;;;16.77;7.45;;;;;;;;;;4937346;29;20039;-64
2022/04/16 01:40:35;;;;;;;13.05;7.30;;;;;;;;;;4937047;29;20026;-67
2022/04/16 01:43:01;;;;;;;12.60;6.97;;;;;;;;;;4937138;29;20044;-67
2022/04/16 01:45:27;;;;;;;9.63;6.95;;;;;;;;;;4937199;29;20034;-66
2022/04/16 01:47:53;;;;;;;12.18;7.97;;;;;;;;;;4937150;29;20522;-69
2022/04/16 01:50:19;;;;;;;17.75;7.65;;;;;;;;;;4936888;29;20071;-66
2022/04/16 01:52:46;;;;;;;14.60;8.13;;;;;;;;;;4936944;29;20032;-63
2022/04/16 01:55:12;;;;;;;17.73;7.90;;;;;;;;;;4936717;29;20043;-63
2022/04/16 01:57:38;;;;;;;14.55;8.10;;;;;;;;;;4936744;29;20044;-69
2022/04/16 02:00:09;;;;;;;12.55;7.53;;;;;;;;;;4936885;29;20087;-66
2022/04/16 02:02:36;;;;;;;16.17;7.57;;;;;;;;;;4936908;29;20070;-64
2022/04/16 02:05:07;;;;;;;16.33;7.55;;;;;;;;;;4936892;29;20024;-69
2022/04/16 02:07:33;;;;;;;14.73;7.90;;;;;;;;;;4936849;29;20035;-64
2022/04/16 02:10:00;;;;;;;11.93;7.93;;;;;;;;;;4936919;29;20052;-65
2022/04/16 02:12:26;;;;;;;13.20;7.45;;;;;;;;;;4937178;29;20047;-67
2022/04/16 02:14:52;;;;;;;10.73;7.43;;;;;;;;;;4936778;29;20027;-63
2022/04/16 02:17:18;;;;;;;21.40;7.68;;;;;;;;;;4936826;29;20031;-67
2022/04/16 02:19:44;;;;;;;13.32;7.78;;;;;;;;;;4936522;29;20031;-68
2022/04/16 02:22:11;;;;;;;10.13;6.95;;;;;;;;;;4936570;29;20128;-69
2022/04/16 02:24:38;;;;;;;11.25;6.75;;;;;;;;;;4936748;29;20050;-63
2022/04/16 02:27:04;;;;;;;12.80;6.60;;;;;;;;;;4936744;29;20321;-64
2022/04/16 02:29:31;;;;;;;11.32;7.05;;;;;;;;;;4936943;29;20034;-63
2022/04/16 02:31:57;;;;;;;10.93;7.32;;;;;;;;;;4936659;29;20107;-63
2022/04/16 02:34:23;;;;;;;10.30;6.88;;;;;;;;;;4935730;29;20051;-63
2022/04/16 02:36:49;;;;;;;11.65;7.15;;;;;;;;;;4936077;29;20039;-64
2022/04/16 02:39:15;;;;;;;16.38;7.38;;;;;;;;;;4936407;29;20020;-64
2022/04/16 02:41:42;;;;;;;13.48;7.43;;;;;;;;;;4936254;29;20052;-62
2022/04/16 02:47:05;;;;;;;16.35;7.57;;;;;;;;;;4936545;29;20083;-63
2022/04/16 02:47:05;;;;;;;14.35;8.15;;;;;;;;;;4936662;29;20040;-66
2022/04/16 02:49:36;;;;;;;14.30;7.30;;;;;;;;;;4935942;29;20401;-72
2022/04/16 02:52:02;;;;;;;13.07;7.22;;;;;;;;;;4935830;29;20077;-66
2022/04/16 02:54:28;;;;;;;10.90;6.65;;;;;;;;;;4936156;29;20040;-67
2022/04/16 02:56:55;;;;;;;12.63;6.30;;;;;;;;;;4935938;29;20075;-66
2022/04/16 02:59:21;;;;;;;15.85;6.18;;;;;;;;;;4935685;29;20058;-69
2022/04/16 03:01:47;;;;;;;17.27;6.90;;;;;;;;;;4935776;29;20045;-66
2022/04/16 03:04:13;;;;;;;11.80;6.43;;;;;;;;;;4935700;29;20034;-65
2022/04/16 03:06:39;;;;;;;10.80;6.45;;;;;;;;;;4935650;29;20047;-66
2022/04/16 03:09:04;;;;;;;13.15;6.60;;;;;;;;;;4935682;29;20039;-64
2022/04/16 03:11:31;;;;;;;17.77;7.88;;;;;;;;;;4935678;29;20070;-65
2022/04/16 03:17:31;;;;;;;15.52;6.80;;;;;;;;;;4935949;29;20036;-63
2022/04/16 03:19:27;;;;;;;18.33;7.88;;;;;;;;;;4939391;29;20086;-64
2022/04/16 03:21:53;;;;;;;17.60;7.32;;;;;;;;;;4936469;29;20028;-63
2022/04/16 03:24:18;;;;;;;17.50;7.70;;;;;;;;;;4935665;29;20503;-63
2022/04/16 03:26:44;;;;;;;17.85;6.65;;;;;;;;;;4935239;29;20027;-63
2022/04/16 03:29:10;;;;;;;12.43;6.25;;;;;;;;;;4935219;29;20055;-63
2022/04/16 03:31:36;;;;;;;12.20;6.35;;;;;;;;;;4934898;29;20470;-64
2022/04/16 03:34:02;;;;;;;16.52;7.15;;;;;;;;;;4934947;29;20047;-64
2022/04/16 03:36:27;;;;;;;11.18;7.15;;;;;;;;;;4935156;29;20035;-63
2022/04/16 03:38:53;;;;;;;15.23;6.78;;;;;;;;;;4935197;29;20070;-65
2022/04/16 03:41:19;;;;;;;12.80;6.80;;;;;;;;;;4935396;29;20116;-64
2022/04/16 03:43:45;;;;;;;9.90;5.93;;;;;;;;;;4935073;29;20039;-65
2022/04/16 03:46:11;;;;;;;13.85;7.00;;;;;;;;;;4934550;29;20028;-66
2022/04/16 03:48:38;;;;;;;13.30;7.18;;;;;;;;;;4935242;29;20075;-64
2022/04/16 03:51:03;;;;;;;28.25;9.40;;;;;;;;;;4935137;29;20074;-64
2022/04/16 03:53:29;;;;;;;17.52;8.20;;;;;;;;;;4935347;29;20526;-64
2022/04/16 04:01:24;;;;;;;13.55;7.60;;;;;;;;;;4934722;29;20031;-68
2022/04/16 04:03:50;;;;;;;15.80;7.53;;;;;;;;;;4935004;29;20023;-67
2022/04/16 04:06:16;;;;;;;15.30;7.50;;;;;;;;;;4934873;29;20580;-67
2022/04/16 04:08:41;;;;;;;15.27;7.70;;;;;;;;;;4934759;29;20028;-67
2022/04/16 04:11:07;;;;;;;20.05;7.35;;;;;;;;;;4934815;29;20035;-68
2022/04/16 04:13:33;;;;;;;18.58;7.32;;;;;;;;;;4934794;29;20434;-63
2022/04/16 04:15:59;;;;;;;20.08;7.50;;;;;;;;;;4935131;29;20039;-66
2022/04/16 04:18:26;;;;;;;10.02;6.55;;;;;;;;;;4934767;29;20024;-63
2022/04/16 04:20:53;;;;;;;14.98;7.22;;;;;;;;;;4934625;28;20048;-69
2022/04/16 04:23:19;;;;;;;16.30;6.85;;;;;;;;;;4934658;29;20055;-68
2022/04/16 04:25:45;;;;;;;10.27;6.82;;;;;;;;;;4935041;29;20513;-68
2022/04/16 04:28:11;;;;;;;9.00;6.40;;;;;;;;;;4934985;29;20399;-63
2022/04/16 04:30:37;;;;;;;14.93;6.60;;;;;;;;;;4934824;29;20039;-64
2022/04/16 04:33:02;;;;;;;11.38;6.72;;;;;;;;;;4934997;29;20536;-64
2022/04/16 04:35:28;;;;;;;13.07;6.47;;;;;;;;;;4934777;29;20118;-64
2022/04/16 04:37:54;;;;;;;19.60;8.07;;;;;;;;;;4934809;29;20035;-64
2022/04/16 04:40:21;;;;;;;11.15;6.63;;;;;;;;;;4934555;29;20042;-66
2022/04/16 04:42:47;;;;;;;13.75;6.47;;;;;;;;;;4933691;29;20508;-64
2022/04/16 04:45:14;;;;;;;14.48;6.68;;;;;;;;;;4933184;29;20094;-64
2022/04/16 04:47:40;;;;;;;15.40;7.40;;;;;;;;;;4933528;29;20039;-64
2022/04/16 04:50:08;;;;;;;16.40;7.57;;;;;;;;;;4934975;29;20055;-64
2022/04/16 04:52:36;;;;;;;15.95;9.00;;;;;;;;;;4933587;29;20040;-66
2022/04/16 04:55:06;;;;;;;15.98;7.65;;;;;;;;;;4933986;29;20384;-64
2022/04/16 04:57:32;;;;;;;14.32;7.35;;;;;;;;;;4938307;29;20032;-64
2022/04/16 04:59:58;;;;;;;17.38;8.18;;;;;;;;;;4938857;29;20030;-65
2022/04/16 05:02:24;;;;;;;16.00;8.57;;;;;;;;;;4939168;29;20566;-65
2022/04/16 05:04:49;;;;;;;16.15;7.97;;;;;;;;;;4939157;29;20054;-68
2022/04/16 05:07:15;;;;;;;17.33;8.05;;;;;;;;;;4938694;29;20047;-63
2022/04/16 05:09:41;;;;;;;11.55;7.45;;;;;;;;;;4939864;29;20471;-63
2022/04/16 05:12:07;;;;;;;15.40;7.70;;;;;;;;;;4938905;29;20053;-66
2022/04/16 05:14:33;;;;;;;21.02;8.45;;;;;;;;;;4939842;29;20103;-65
2022/04/16 05:16:59;;;;;;;19.50;8.88;;;;;;;;;;4952656;29;20046;-62
2022/04/16 05:19:24;;;;;;;18.60;9.25;;;;;;;;;;4938269;29;20082;-63
2022/04/16 05:21:51;;;;;;;15.45;8.75;;;;;;;;;;4938056;29;20043;-65
2022/04/16 05:24:16;;;;;;;19.52;8.77;;;;;;;;;;4937585;29;20166;-63
2022/04/16 05:26:42;;;;;;;13.75;8.25;;;;;;;;;;4937377;29;20122;-64
2022/04/16 05:29:08;;;;;;;14.98;8.63;;;;;;;;;;4937725;29;20103;-63
2022/04/16 05:31:34;;;;;;;15.68;8.38;;;;;;;;;;4937443;29;20039;-65
2022/04/16 05:34:19;;;;;;;15.52;8.25;;;;;;;;;;4937217;29;20027;-63
2022/04/16 05:36:47;;;;;;;13.02;7.65;;;;;;;;;;4937501;29;20042;-68
2022/04/16 05:39:13;;;;;;;19.55;8.82;;;;;;;;;;4936857;29;20026;-65
2022/04/16 05:41:39;;;;;;;16.75;7.25;;;;;;;;;;4937406;29;20455;-64
2022/04/16 05:44:05;;;;;;;17.60;7.45;;;;;;;;;;4937659;29;20113;-66
2022/04/16 05:46:31;;;;;;;21.70;7.47;;;;;;;;;;4937440;29;20035;-68
2022/04/16 05:48:57;;;;;;;16.75;8.30;;;;;;;;;;4937493;29;20028;-66
2022/04/16 05:51:25;;;;;;;17.30;7.65;;;;;;;;;;4936847;29;20055;-66
2022/04/16 05:53:52;;;;;;;23.38;7.82;;;;;;;;;;4937365;29;20557;-73
2022/04/16 05:56:19;;;;;;;16.00;9.20;;;;;;;;;;4937407;29;20039;-72
2022/04/16 05:58:45;;;;;;;16.13;7.97;;;;;;;;;;4937273;29;20043;-72
2022/04/16 06:01:12;;;;;;;23.05;8.43;;;;;;;;;;4952109;29;20103;-73
2022/04/16 06:03:41;;;;;;;15.18;8.30;;;;;;;;;;4937446;29;20036;-74
2022/04/16 06:06:08;;;;;;;14.88;8.65;;;;;;;;;;4947134;29;20083;-75
2022/04/16 06:08:34;;;;;;;16.30;7.82;;;;;;;;;;4936125;29;20557;-74
2022/04/16 06:11:00;;;;;;;13.77;8.10;;;;;;;;;;4937111;29;20040;-72
2022/04/16 06:13:26;;;;;;;23.00;8.63;;;;;;;;;;4937198;29;20102;-73
2022/04/16 06:15:52;;;;;;;14.68;8.30;;;;;;;;;;4937439;29;20115;-75
2022/04/16 06:18:18;;;;;;;18.65;8.45;;;;;;;;;;4937158;29;20062;-76
2022/04/16 06:20:44;;;;;;;16.73;8.10;;;;;;;;;;4937096;29;20046;-71
2022/04/16 06:23:10;;;;;;;13.07;7.15;;;;;;;;;;4937134;29;20032;-74
2022/04/16 06:25:36;;;;;;;19.58;8.57;;;;;;;;;;4940534;29;20389;-68
2022/04/16 06:28:02;;;;;;;11.85;6.90;;;;;;;;;;4940718;29;20059;-72
2022/04/16 06:30:29;;;;;;;12.07;6.88;;;;;;;;;;4934872;29;20517;-69
2022/04/16 06:32:55;;;;;;;7.40;5.78;;;;;;;;;;4934094;29;20024;-73
2022/04/16 06:35:21;;;;;;;18.13;6.65;;;;;;;;;;4935468;29;20039;-68
2022/04/16 06:37:47;;;;;;;17.98;6.68;;;;;;;;;;4936276;29;20024;-70
2022/04/16 06:40:12;;;;;;;14.15;7.15;;;;;;;;;;4936534;29;20058;-73
2022/04/16 06:42:39;;;;;;;13.48;7.20;;;;;;;;;;4934825;29;20118;-69
2022/04/16 06:45:06;;;;;;;14.57;7.32;;;;;;;;;;4935893;29;20040;-70
2022/04/16 06:47:32;;;;;;;12.23;6.68;;;;;;;;;;4936182;29;20038;-72
2022/04/16 06:49:58;;;;;;;13.27;7.10;;;;;;;;;;4932863;29;20036;-69
2022/04/16 06:52:24;;;;;;;13.43;6.97;;;;;;;;;;4934430;29;20475;-70
2022/04/16 06:54:50;;;;;;;10.40;6.53;;;;;;;;;;4935571;29;20044;-69
2022/04/16 06:57:16;;;;;;;11.45;7.03;;;;;;;;;;4934007;29;20031;-69
2022/04/16 06:59:42;;;;;;;10.95;5.95;;;;;;;;;;4935545;29;20040;-67
2022/04/16 07:02:10;;;;;;;9.55;5.63;;;;;;;;;;4935697;29;20090;-69
2022/04/16 07:04:36;;;;;;;13.45;5.60;;;;;;;;;;4935911;29;20051;-70
2022/04/16 07:07:03;;;;;;;12.88;6.28;;;;;;;;;;4936273;29;20027;-69
2022/04/16 07:09:28;;;;;;;13.30;7.20;;;;;;;;;;4938494;29;20043;-71
2022/04/16 07:11:55;;;;;;;15.05;6.03;;;;;;;;;;4937689;29;20035;-67
2022/04/16 07:14:21;;;;;;;14.35;6.03;;;;;;;;;;4935639;29;20522;-67
2022/04/16 07:16:47;;;;;;;13.60;5.80;;;;;;;;;;4935374;29;20467;-69
2022/04/16 07:19:13;;;;;;;11.25;6.15;;;;;;;;;;4935797;29;20032;-68
2022/04/16 07:21:39;;;;;;;13.25;6.72;;;;;;;;;;4935577;29;20028;-69
2022/04/16 07:24:05;;;;;;;13.23;6.53;;;;;;;;;;4934410;29;20078;-68
2022/04/16 07:26:31;;;;;;;21.98;7.50;;;;;;;;;;4935236;29;20458;-69
2022/04/16 07:28:57;;;;;;;11.60;6.38;;;;;;;;;;4935697;29;20032;-67
2022/04/16 07:31:23;;;;;;;18.35;6.95;;;;;;;;;;4934791;29;20064;-70
2022/04/16 07:33:48;;;;;;;16.15;6.35;;;;;;;;;;4934909;29;20130;-68
2022/04/16 07:36:14;;;;;;;16.95;6.68;;;;;;;;;;4935467;29;20024;-68
2022/04/16 07:38:43;;;;;;;24.48;8.38;;;;;;;;;;4935728;29;20039;-69
2022/04/16 07:41:10;;;;;;;16.80;6.20;;;;;;;;;;4935477;29;20034;-68
2022/04/16 07:43:36;;;;;;;13.02;7.18;;;;;;;;;;4935656;29;20478;-72
2022/04/16 07:46:02;;;;;;;11.73;7.50;;;;;;;;;;4935304;29;20394;-69
2022/04/16 07:48:28;;;;;;;13.38;6.18;;;;;;;;;;4935328;29;20462;-69
2022/04/16 07:50:54;;;;;;;16.35;6.20;;;;;;;;;;4935495;29;20075;-68
2022/04/16 07:53:20;;;;;;;11.68;4.43;;;;;;;;;;4935425;29;20063;-70
2022/04/16 07:55:46;;;;;;;8.82;4.00;;;;;;;;;;4935162;29;20024;-71
2022/04/16 07:58:13;;;;;;;16.08;5.60;;;;;;;;;;4935268;29;20505;-73
2022/04/16 08:00:39;;;;;;;17.85;6.53;;;;;;;;;;4934850;29;20039;-74
2022/04/16 08:03:06;;;;;;;17.13;6.47;;;;;;;;;;4934619;29;20036;-70
2022/04/16 08:05:31;;;;;;;15.77;5.65;;;;;;;;;;4935202;29;20047;-68
2022/04/16 08:07:57;;;;;;;12.85;6.07;;;;;;;;;;4936522;29;20031;-70
2022/04/16 08:10:24;;;;;;;13.82;6.13;;;;;;;;;;4935229;29;20102;-70
2022/04/16 08:12:50;;;;;;;11.43;5.38;;;;;;;;;;4934884;29;20040;-69
2022/04/16 08:15:16;;;;;;;12.10;4.95;;;;;;;;;;4935412;29;20091;-69
2022/04/16 08:17:42;;;;;;;20.08;5.70;;;;;;;;;;4935086;29;20035;-69
2022/04/16 08:20:09;;;;;;;10.48;6.13;;;;;;;;;;4935084;29;20598;-68
2022/04/16 08:22:35;;;;;;;17.58;6.22;;;;;;;;;;4935103;29;20163;-68
2022/04/16 08:27:51;;;;;;;11.52;4.75;;;;;;;;;;4934877;29;20028;-70
2022/04/16 08:30:18;;;;;;;11.15;5.32;;;;;;;;;;4935047;29;20032;-68
2022/04/16 08:32:45;;;;;;;13.35;4.53;;;;;;;;;;4938529;29;20087;-69
2022/04/16 08:35:15;;;;;;;8.13;4.30;;;;;;;;;;4938958;29;20043;-69
2022/04/16 08:37:42;;;;;;;4.97;3.85;;;;;;;;;;4938489;29;20534;-69
2022/04/16 08:40:09;;;;;;;8.82;4.20;;;;;;;;;;4938886;29;20079;-70
2022/04/16 08:42:37;;;;;;;9.88;3.70;;;;;;;;;;4938842;29;20497;-71
2022/04/16 08:45:04;;;;;;;10.80;4.57;;;;;;;;;;4938810;29;20545;-69
2022/04/16 08:47:31;;;;;;;6.60;3.78;;;;;;;;;;4938462;29;20407;-70
2022/04/16 08:49:59;;;;;;;11.27;3.00;;;;;;;;;;4938446;29;20031;-68
2022/04/16 08:52:29;;;;;;;8.52;3.50;;;;;;;;;;4938512;29;20044;-70
2022/04/16 08:54:59;;;;;;;7.55;3.47;;;;;;;;;;4938810;29;20039;-69
2022/04/16 08:57:24;;;;;;;7.13;4.03;;;;;;;;;;4938477;29;20102;-69
2022/04/16 08:59:57;;;;;;;12.00;7.47;;;;;;;;;;4938657;29;20094;-67
2022/04/16 09:02:27;;;;;;;19.17;7.57;;;;;;;;;;4939957;29;20122;-69
2022/04/16 09:05:02;;;;;;;12.48;6.85;;;;;;;;;;4939522;29;20117;-72
2022/04/16 09:07:28;;;;;;;19.05;8.07;;;;;;;;;;4937040;29;20483;-71
2022/04/16 09:10:04;;;;;;;17.15;8.07;;;;;;;;;;4938221;29;20074;-69
2022/04/16 09:12:36;;;;;;;11.45;6.20;;;;;;;;;;4938242;29;20032;-70
2022/04/16 09:15:10;;;;;;;8.90;5.72;;;;;;;;;;4937492;29;20036;-68
2022/04/16 09:17:38;;;;;;;10.80;5.15;;;;;;;;;;4929860;29;20028;-69
2022/04/16 09:20:11;;;;;;;15.85;5.90;;;;;;;;;;4934044;29;20367;-68
2022/04/16 09:22:39;;;;;;;12.35;3.80;;;;;;;;;;4938022;29;20390;-69
2022/04/16 09:25:15;;;;;;;6.47;3.65;;;;;;;;;;4938224;29;20024;-70
2022/04/16 09:27:50;;;;;;;6.53;3.15;;;;;;;;;;4938110;29;20122;-71
2022/04/16 09:30:22;;;;;;;7.65;2.80;;;;;;;;;;4938462;29;20075;-70
2022/04/16 09:32:48;;;;;;;7.80;2.70;;;;;;;;;;4938286;29;20398;-69
2022/04/16 09:35:40;;;;;;;7.43;2.90;;;;;;;;;;4919691;29;20024;-69
2022/04/16 09:38:07;;;;;;;8.32;2.85;;;;;;;;;;4917945;29;20110;-67
2022/04/16 09:40:34;;;;;;;9.75;2.53;;;;;;;;;;4918886;29;20391;-68
2022/04/16 09:43:02;;;;;;;5.15;2.90;;;;;;;;;;4917305;29;20043;-68
2022/04/16 09:45:29;;;;;;;8.73;3.00;;;;;;;;;;4918485;29;20024;-71
2022/04/16 09:47:55;;;;;;;5.82;2.78;;;;;;;;;;4932508;29;20615;-70
2022/04/16 09:50:23;;;;;;;5.43;2.17;;;;;;;;;;4951051;28;20096;-71
2022/04/16 09:52:53;;;;;;;8.02;2.28;;;;;;;;;;4935458;29;20039;-70
2022/04/16 09:55:24;;;;;;;9.10;3.08;;;;;;;;;;4936228;29;20482;-71
2022/04/16 09:57:52;;;;;;;7.07;2.60;;;;;;;;;;4936645;29;20035;-70
2022/04/16 10:00:18;;;;;;;5.70;2.63;;;;;;;;;;4936195;29;20039;-69
2022/04/16 10:02:46;;;;;;;8.15;2.88;;;;;;;;;;4935804;29;20051;-70
2022/04/16 10:05:12;;;;;;;6.63;2.95;;;;;;;;;;4936444;29;20043;-70
2022/04/16 10:07:38;;;;;;;8.95;2.38;;;;;;;;;;4936412;29;20044;-70
2022/04/16 10:10:17;;;;;;;6.75;2.65;;;;;;;;;;4936178;29;20039;-72
2022/04/16 10:13:07;;;;;;;10.93;3.42;;;;;;;;;;4936436;29;20047;-73
2022/04/16 10:15:57;;;;;;;6.85;2.63;;;;;;;;;;4935841;29;20039;-70
2022/04/16 10:18:24;;;;;;;5.25;2.22;;;;;;;;;;4935816;29;20036;-73
2022/04/16 10:20:57;;;;;;;12.73;3.20;;;;;;;;;;4935583;29;20143;-70
2022/04/16 10:23:30;;;;;;;8.82;2.60;;;;;;;;;;4936156;29;20040;-74
2022/04/16 10:26:01;;;;;;;9.85;3.17;;;;;;;;;;4935721;29;20110;-72
2022/04/16 10:28:41;;;;;;;6.80;2.50;;;;;;;;;;4936175;29;20091;-70
2022/04/16 10:31:28;;;;;;;7.65;2.85;;;;;;;;;;4935529;29;20067;-72
2022/04/16 10:34:08;;;;;;;7.95;2.50;;;;;;;;;;4935741;29;20183;-69
2022/04/16 10:36:41;;;;;;;8.90;3.00;;;;;;;;;;4935254;29;20141;-73
2022/04/16 10:39:17;;;;;;;;;;;;;;;;;;4935279;29;20467;-72
2022/04/16 10:42:01;;;;;;;7.20;2.70;;;;;;;;;;4934753;29;19923;-70
2022/04/16 10:44:42;;;;;;;6.38;2.90;;;;;;;;;;4934957;29;20042;-76
2022/04/16 10:47:12;;;;;;;9.23;2.80;;;;;;;;;;4935585;29;20436;-72
2022/04/16 10:49:41;;;;;;;8.30;2.28;;;;;;;;;;4935663;29;20043;-69
2022/04/16 10:52:28;;;;;;;5.18;2.28;;;;;;;;;;4935405;29;20039;-74
2022/04/16 10:55:24;;;;;;;10.20;2.63;;;;;;;;;;4934894;29;20035;-75
2022/04/16 10:58:02;;;;;;;6.90;2.55;;;;;;;;;;4938018;29;20058;-71
2022/04/16 11:00:46;;;;;;;12.20;3.00;;;;;;;;;;4935637;29;20047;-71
2022/04/16 11:03:17;;;;;;;6.45;2.58;;;;;;;;;;4935177;29;20042;-69
2022/04/16 11:05:43;;;;;;;7.43;2.25;;;;;;;;;;4935107;29;20063;-72
2022/04/16 11:08:14;;;;;;;5.70;2.60;;;;;;;;;;4934204;29;20110;-72
2022/04/16 11:10:41;;;;;;;30.77;17.48;;;;;;;;;;4933959;29;20036;-72
2022/04/16 11:13:08;;;;;;;12.50;6.97;;;;;;;;;;4935034;29;20387;-74
2022/04/16 11:15:34;;;;;;;7.20;5.07;;;;;;;;;;4934774;29;20475;-72
2022/04/16 11:18:01;;;;;;;8.68;3.50;;;;;;;;;;4934174;29;20115;-72
2022/04/16 11:20:28;;;;;;;9.82;3.47;;;;;;;;;;4935380;29;20044;-71
2022/04/16 11:22:54;;;;;;;9.05;2.42;;;;;;;;;;4950553;29;20031;-72
2022/04/16 11:25:25;;;;;;;10.75;2.90;;;;;;;;;;4935810;29;20094;-72
2022/04/16 11:36:11;;;;;;;15.07;3.50;;;;;;;;;;4934151;29;20487;-69
2022/04/16 11:38:39;;;;;;;9.90;3.05;;;;;;;;;;4935645;29;20088;-70
2022/04/16 11:41:12;;;;;;;9.70;3.08;;;;;;;;;;4936059;29;20051;-72
2022/04/16 11:43:48;;;;;;;;;;;;;;;;;;4936709;29;20485;-70
2022/04/16 11:46:14;;;;;;;11.43;3.10;;;;;;;;;;4936053;29;19973;-72
2022/04/16 11:48:45;;;;;;;8.40;2.83;;;;;;;;;;4935690;29;20102;-70
2022/04/16 11:51:12;;;;;;;5.40;2.25;;;;;;;;;;4935533;29;20047;-72
2022/04/16 11:53:45;;;;;;;7.22;2.30;;;;;;;;;;4935867;29;20428;-71
2022/04/16 11:56:11;;;;;;;5.13;2.58;;;;;;;;;;4935780;29;20035;-71
2022/04/16 11:58:37;;;;;;;13.90;5.68;;;;;;;;;;4935377;29;20119;-71
2022/04/16 12:01:03;;;;;;;15.10;7.32;;;;;;;;;;4935773;29;20057;-72
2022/04/16 12:03:40;;;;;;;16.73;4.72;;;;;;;;;;4935597;29;20020;-69
2022/04/16 12:06:13;;;;;;;10.13;3.35;;;;;;;;;;4935124;29;20463;-71
2022/04/16 12:08:46;;;;;;;;;;;;;;;;;;4936051;29;20032;-71
2022/04/16 12:11:13;;;;;;;8.88;4.60;;;;;;;;;;4935521;29;19914;-73
2022/04/16 12:13:41;;;;;;;6.32;2.78;;;;;;;;;;4935408;29;20032;-74
2022/04/16 12:16:12;;;;;;;8.68;2.83;;;;;;;;;;4934978;29;20039;-72
2022/04/16 12:18:43;;;;;;;7.32;3.22;;;;;;;;;;4933288;29;20156;-74
2022/04/16 12:21:14;;;;;;;6.38;3.08;;;;;;;;;;4933898;29;20071;-73
2022/04/16 12:23:41;;;;;;;11.77;3.92;;;;;;;;;;4935055;29;20368;-73
2022/04/16 12:26:09;;;;;;;5.75;2.67;;;;;;;;;;4935180;29;20020;-73
2022/04/16 12:28:36;;;;;;;10.25;2.45;;;;;;;;;;4934974;29;20055;-76
2022/04/16 12:31:03;;;;;;;11.55;2.85;;;;;;;;;;4934994;29;20028;-73
2022/04/16 12:33:29;;;;;;;10.05;2.72;;;;;;;;;;4935048;29;20086;-73
2022/04/16 12:35:57;;;;;;;10.27;3.00;;;;;;;;;;4935066;29;20463;-73
2022/04/16 12:38:25;;;;;;;10.43;2.72;;;;;;;;;;4934940;29;20042;-75
2022/04/16 12:41:05;;;;;;;8.13;2.85;;;;;;;;;;4935064;29;20024;-74
2022/04/16 12:43:31;;;;;;;8.63;2.60;;;;;;;;;;4935413;28;20403;-74
2022/04/16 12:45:57;;;;;;;12.10;2.95;;;;;;;;;;4935254;29;20020;-74
2022/04/16 12:48:23;;;;;;;10.57;3.00;;;;;;;;;;4934959;29;20046;-75
2022/04/16 12:50:48;;;;;;;7.10;2.40;;;;;;;;;;4934758;29;20095;-73
2022/04/16 12:53:14;;;;;;;8.55;2.88;;;;;;;;;;4935694;29;20387;-73
2022/04/16 12:55:40;;;;;;;19.27;4.28;;;;;;;;;;4935531;29;20054;-75
2022/04/16 12:58:06;;;;;;;8.25;3.10;;;;;;;;;;4934850;29;20044;-74
2022/04/16 13:00:32;;;;;;;7.32;2.90;;;;;;;;;;4934893;29;20100;-70
2022/04/16 13:02:59;;;;;;;7.05;2.72;;;;;;;;;;4934392;29;20474;-73
2022/04/16 13:05:26;;;;;;;9.80;2.42;;;;;;;;;;4934725;29;20034;-72
2022/04/16 13:07:52;;;;;;;12.60;3.00;;;;;;;;;;4934942;29;20078;-74
2022/04/16 13:10:19;;;;;;;7.88;2.85;;;;;;;;;;4934894;29;20490;-72
2022/04/16 13:12:44;;;;;;;10.25;2.58;;;;;;;;;;4934919;29;20043;-72
2022/04/16 13:15:11;;;;;;;5.70;2.70;;;;;;;;;;4934753;29;20482;-70
2022/04/16 13:17:39;;;;;;;7.75;2.60;;;;;;;;;;4936809;29;20032;-72
2022/04/16 13:20:06;;;;;;;5.90;2.40;;;;;;;;;;4938554;29;20024;-76
2022/04/16 13:22:32;;;;;;;7.72;2.58;;;;;;;;;;4934441;29;20028;-70
2022/04/16 13:24:58;;;;;;;5.75;2.80;;;;;;;;;;4936902;29;20346;-72
2022/04/16 13:27:24;;;;;;;10.57;4.28;;;;;;;;;;4937166;29;20047;-73
2022/04/16 13:29:50;;;;;;;5.63;2.80;;;;;;;;;;4937128;29;20028;-72
2022/04/16 13:32:16;;;;;;;7.85;3.50;;;;;;;;;;4937092;29;20043;-70
2022/04/16 13:34:43;;;;;;;7.55;2.97;;;;;;;;;;4936939;29;20027;-73
2022/04/16 13:37:10;;;;;;;9.00;4.15;;;;;;;;;;4936641;29;20035;-73
2022/04/16 13:42:23;;;;;;;7.00;2.42;;;;;;;;;;4936406;29;20047;-71
2022/04/16 13:44:50;;;;;;;5.50;2.47;;;;;;;;;;4936816;29;20027;-71
2022/04/16 13:47:17;;;;;;;8.23;2.25;;;;;;;;;;4936662;29;20046;-72
2022/04/16 13:49:44;;;;;;;14.50;3.10;;;;;;;;;;4936884;29;20033;-72
2022/04/16 13:52:14;;;;;;;5.65;2.80;;;;;;;;;;4935958;29;20048;-73
2022/04/16 13:54:41;;;;;;;13.93;7.45;;;;;;;;;;4936453;29;20036;-78
2022/04/16 13:57:09;;;;;;;13.75;8.43;;;;;;;;;;4936641;29;20020;-77
2022/04/16 13:59:36;;;;;;;9.75;4.55;;;;;;;;;;4937039;29;20044;-74
2022/04/16 14:02:06;;;;;;;5.93;2.97;;;;;;;;;;4936360;29;20140;-77
2022/04/16 14:07:16;;;;;;;8.48;3.10;;;;;;;;;;4936824;29;20359;-74
2022/04/16 14:09:42;;;;;;;10.95;2.95;;;;;;;;;;4936253;29;20051;-78
2022/04/16 14:12:09;;;;;;;8.60;2.88;;;;;;;;;;4934947;29;20082;-73
2022/04/16 14:14:34;;;;;;;8.65;2.80;;;;;;;;;;4936127;29;20020;-72
2022/04/16 14:17:00;;;;;;;6.75;2.78;;;;;;;;;;4936052;29;20032;-74
2022/04/16 14:19:26;;;;;;;7.30;2.70;;;;;;;;;;4936092;29;20042;-71
2022/04/16 14:21:54;;;;;;;9.68;2.80;;;;;;;;;;4936443;29;20435;-71
2022/04/16 14:24:23;;;;;;;12.13;3.00;;;;;;;;;;4936260;29;20032;-75
2022/04/16 14:26:49;;;;;;;9.40;2.63;;;;;;;;;;4935970;29;20474;-76
2022/04/16 14:29:17;;;;;;;7.70;3.13;;;;;;;;;;4935474;29;20086;-74
2022/04/16 14:31:44;;;;;;;9.68;3.30;;;;;;;;;;4934638;29;20453;-76
2022/04/16 14:34:10;;;;;;;11.38;3.50;;;;;;;;;;4935906;29;20031;-77
2022/04/16 14:36:37;;;;;;;12.85;3.28;;;;;;;;;;4936207;29;20047;-79
2022/04/16 14:39:03;;;;;;;9.07;3.33;;;;;;;;;;4936156;29;20104;-74
2022/04/16 14:41:29;;;;;;;10.13;3.25;;;;;;;;;;4935583;29;20345;-72
2022/04/16 14:43:58;;;;;;;7.28;3.00;;;;;;;;;;4935785;29;20030;-77
2022/04/16 14:46:25;;;;;;;11.10;3.40;;;;;;;;;;4935702;29;20078;-76
2022/04/16 14:48:54;;;;;;;8.90;3.13;;;;;;;;;;4935681;29;20024;-73
2022/04/16 14:51:20;;;;;;;9.25;3.42;;;;;;;;;;4935950;29;20044;-75
2022/04/16 14:53:46;;;;;;;10.13;3.33;;;;;;;;;;4936001;29;20042;-76
2022/04/16 14:56:12;;;;;;;10.60;3.47;;;;;;;;;;4935430;29;20471;-74
2022/04/16 14:58:38;;;;;;;11.60;3.80;;;;;;;;;;4935366;29;20034;-72
2022/04/16 15:01:06;;;;;;;8.57;3.30;;;;;;;;;;4935521;29;20040;-77
2022/04/16 15:03:32;;;;;;;13.52;3.50;;;;;;;;;;4935451;29;20165;-75